Time;durP1;ratioP1;P1;durP2;ratioP2;P2;SDS_P1;SDS_P2;PMS_P1;PMS_P2;Temp;Humidity;BMP_temperature;BMP_pressure;BME280_temperature;BME280_humidity;BME280_pressure;Samples;Min_cycle;Max_cycle;Signal;HPM_P1;HPM_P2
2022/01/06 00:02:11;;;;;;;4.78;2.25;;;;;;;2.73;55.76;98373.47;5087503;28;20220;-66
2022/01/06 00:04:43;;;;;;;5.60;3.40;;;;;;;2.76;55.61;98368.13;5087067;28;20040;-66
2022/01/06 00:07:14;;;;;;;4.35;2.95;;;;;;;2.74;55.72;98375.16;5086593;28;20306;-66
2022/01/06 00:09:42;;;;;;;5.45;3.03;;;;;;;2.74;55.50;98391.72;5087182;28;20057;-67
2022/01/06 00:12:15;;;;;;;4.75;2.83;;;;;;;2.70;55.78;98404.97;5087288;28;20041;-67
2022/01/06 00:14:58;;;;;;;4.55;2.58;;;;;;;2.72;55.57;98393.53;5087225;28;20049;-67
2022/01/06 00:17:43;;;;;;;4.78;2.70;;;;;;;2.72;55.64;98393.53;5086843;28;20354;-66
2022/01/06 00:25:57;;;;;;;5.40;2.15;;;;;;;2.71;56.00;98412.78;5086727;28;20122;-64
2022/01/06 00:28:29;;;;;;;5.10;3.08;;;;;;;2.93;57.85;98407.56;5086612;28;20040;-65
2022/01/06 00:31:02;;;;;;;5.18;3.13;;;;;;;2.61;55.89;98353.00;5085780;28;20204;-64
2022/01/06 00:33:35;;;;;;;5.47;2.65;;;;;;;2.78;55.90;98405.53;5086480;28;20097;-66
2022/01/06 00:36:08;;;;;;;5.05;2.83;;;;;;;2.75;55.65;98421.34;5086536;28;20045;-65
2022/01/06 00:38:40;;;;;;;6.03;2.95;;;;;;;2.71;55.58;98407.53;5085607;28;20190;-67
2022/01/06 00:41:13;;;;;;;9.15;3.15;;;;;;;2.49;55.72;98375.25;5086682;28;20289;-67
2022/01/06 00:43:45;;;;;;;5.28;3.03;;;;;;;2.70;56.04;98400.59;5086636;28;20093;-67
2022/01/06 00:46:17;;;;;;;4.60;2.80;;;;;;;2.70;55.97;98400.59;5086255;28;20048;-65
2022/01/06 00:48:49;;;;;;;4.90;3.20;;;;;;;2.71;55.97;98412.78;5086207;28;20204;-65
2022/01/06 00:51:23;;;;;;;7.57;2.80;;;;;;;2.70;55.99;98392.75;5086333;28;20048;-65
2022/01/06 00:53:56;;;;;;;4.20;3.13;;;;;;;2.70;56.01;98425.91;5085914;28;20106;-66
2022/01/06 00:56:28;;;;;;;4.45;3.00;;;;;;;2.66;56.00;98398.16;5086214;28;20040;-65
2022/01/06 00:59:00;;;;;;;5.70;2.42;;;;;;;2.63;55.96;98421.81;5086262;28;20045;-66
2022/01/06 01:01:33;;;;;;;4.65;2.55;;;;;;;2.62;56.14;98402.66;5085422;28;20102;-66
2022/01/06 01:04:05;;;;;;;3.53;2.45;;;;;;;2.62;55.82;98407.91;5085870;28;20231;-65
2022/01/06 01:06:39;;;;;;;6.55;2.78;;;;;;;2.65;55.95;98406.91;5085856;28;20040;-65
2022/01/06 01:09:11;;;;;;;5.03;2.55;;;;;;;2.67;55.98;98405.09;5085818;28;20052;-65
2022/01/06 01:11:43;;;;;;;4.35;2.13;;;;;;;2.63;56.03;98421.81;5086053;28;20036;-65
2022/01/06 01:14:25;;;;;;;6.35;2.20;;;;;;;2.64;56.28;98447.94;5086055;28;20239;-65
2022/01/06 01:16:59;;;;;;;4.57;2.45;;;;;;;2.66;56.07;98422.56;5085744;28;20048;-65
2022/01/06 01:19:32;;;;;;;5.07;2.65;;;;;;;2.63;56.13;98435.75;5085685;28;20048;-65
2022/01/06 01:22:05;;;;;;;4.05;2.55;;;;;;;2.62;56.30;98425.34;5085933;28;20052;-65
2022/01/06 01:24:38;;;;;;;5.25;2.95;;;;;;;2.63;56.29;98446.22;5085708;28;20041;-65
2022/01/06 01:27:08;;;;;;;4.00;2.50;;;;;;;2.60;56.24;98440.25;5085939;28;20041;-65
2022/01/06 01:29:45;;;;;;;6.25;3.00;;;;;;;2.56;56.56;98429.06;5085668;28;20112;-65
2022/01/06 01:32:13;;;;;;;6.82;2.85;;;;;;;2.58;56.44;98419.38;5086419;28;20232;-65
2022/01/06 01:34:46;;;;;;;3.47;2.22;;;;;;;2.58;56.41;98447.31;5085804;28;20048;-65
2022/01/06 01:37:15;;;;;;;3.50;2.30;;;;;;;2.57;56.53;98420.28;5085765;28;20048;-65
2022/01/06 01:39:44;;;;;;;2.95;2.20;;;;;;;2.36;56.56;98387.94;5085680;28;20052;-65
2022/01/06 01:42:14;;;;;;;5.50;2.20;;;;;;;2.56;56.76;98421.22;5085473;28;20350;-65
2022/01/06 01:44:45;;;;;;;6.72;3.45;;;;;;;2.56;56.93;98439.50;5085469;28;20054;-65
2022/01/06 01:47:16;;;;;;;4.25;2.72;;;;;;;2.56;56.93;98423.81;5084584;28;20086;-65
2022/01/06 01:49:50;;;;;;;6.63;2.50;;;;;;;2.56;57.12;98423.81;5085222;28;20047;-65
2022/01/06 01:52:24;;;;;;;3.67;2.42;;;;;;;2.56;57.18;98413.34;5085166;28;20044;-66
2022/01/06 01:54:56;;;;;;;4.18;2.90;;;;;;;2.55;57.14;98402.03;5085509;28;20271;-66
2022/01/06 01:57:28;;;;;;;4.22;2.33;;;;;;;2.53;57.37;98418.69;5085591;28;20083;-65
2022/01/06 02:00:02;;;;;;;3.47;2.58;;;;;;;2.51;57.32;98421.38;5085308;28;20350;-65
2022/01/06 02:02:34;;;;;;;6.68;3.25;;;;;;;2.52;57.41;98422.22;5084945;28;20056;-66
2022/01/06 02:05:07;;;;;;;5.10;2.38;;;;;;;2.52;57.43;98424.84;5084415;28;20098;-65
2022/01/06 02:07:42;;;;;;;5.63;2.72;;;;;;;2.49;57.60;98427.56;5085422;28;20044;-65
2022/01/06 02:10:14;;;;;;;6.15;2.40;;;;;;;2.47;57.71;98430.25;5085435;28;20048;-65
2022/01/06 02:12:48;;;;;;;8.77;2.88;;;;;;;2.49;57.46;98428.44;5085189;28;20044;-66
2022/01/06 02:15:21;;;;;;;6.93;2.45;;;;;;;2.47;57.61;98418.94;5085147;28;20040;-66
2022/01/06 02:17:53;;;;;;;5.38;3.40;;;;;;;2.45;57.74;98408.53;5085135;28;20044;-66
2022/01/06 02:20:27;;;;;;;5.05;2.47;;;;;;;2.46;57.81;98428.53;5085130;28;20067;-67
2022/01/06 02:23:00;;;;;;;3.73;2.30;;;;;;;2.44;58.00;98432.13;5085352;28;20040;-66
2022/01/06 02:25:33;;;;;;;4.07;2.10;;;;;;;2.46;57.79;98446.84;5085320;28;20045;-67
2022/01/06 02:28:06;;;;;;;6.20;2.42;;;;;;;2.40;57.95;98438.38;5084229;28;20040;-67
2022/01/06 02:30:38;;;;;;;4.85;3.25;;;;;;;2.43;58.04;98428.66;5085235;28;20186;-67
2022/01/06 02:33:10;;;;;;;6.47;2.92;;;;;;;2.44;58.08;98430.34;5084915;28;20090;-66
2022/01/06 02:35:44;;;;;;;4.82;2.22;;;;;;;2.42;58.16;98426.94;5085204;28;20040;-67
2022/01/06 02:38:16;;;;;;;7.32;2.42;;;;;;;2.44;58.18;98430.34;5084861;28;20087;-66
2022/01/06 02:40:49;;;;;;;4.18;2.55;;;;;;;2.43;58.13;98433.88;5084877;28;20041;-67
2022/01/06 02:43:24;;;;;;;4.00;2.70;;;;;;;2.39;58.60;98427.06;5085104;28;20186;-69
2022/01/06 02:45:56;;;;;;;4.38;2.45;;;;;;;2.38;58.34;98427.97;5084804;28;20043;-66
2022/01/06 02:48:29;;;;;;;3.28;2.15;;;;;;;2.37;58.78;98415.81;5084823;28;20259;-67
2022/01/06 02:51:02;;;;;;;6.97;2.53;;;;;;;2.39;58.52;98434.06;5085039;28;20118;-67
2022/01/06 02:53:34;;;;;;;4.07;2.30;;;;;;;2.41;58.76;98422.63;5084688;28;20101;-66
2022/01/06 02:56:07;;;;;;;5.72;3.08;;;;;;;2.41;58.65;98416.53;5085533;28;20102;-66
2022/01/06 02:58:39;;;;;;;6.18;2.97;;;;;;;2.41;58.74;98438.31;5084906;28;20059;-66
2022/01/06 03:01:11;;;;;;;4.97;2.58;;;;;;;2.38;58.86;98441.03;5086243;28;20300;-67
2022/01/06 03:03:43;;;;;;;5.40;2.42;;;;;;;2.38;58.99;98445.44;5088498;28;20059;-66
2022/01/06 03:06:17;;;;;;;5.35;2.42;;;;;;;2.38;58.84;98453.28;5088484;28;20041;-66
2022/01/06 03:08:49;;;;;;;4.38;2.50;;;;;;;2.37;59.01;98446.34;5088203;28;20089;-66
2022/01/06 03:11:25;;;;;;;4.72;2.20;;;;;;;2.34;59.18;98464.75;5088175;28;20235;-66
2022/01/06 03:13:57;;;;;;;5.93;3.08;;;;;;;2.38;59.09;98456.75;5088116;28;20300;-66
2022/01/06 03:16:30;;;;;;;7.68;2.67;;;;;;;2.38;59.04;98468.97;5088358;28;20044;-66
2022/01/06 03:19:02;;;;;;;5.40;2.83;;;;;;;2.36;59.12;98473.38;5087950;28;20044;-66
2022/01/06 03:21:35;;;;;;;6.00;2.60;;;;;;;2.37;59.27;98481.19;5087974;28;20243;-66
2022/01/06 03:24:08;;;;;;;4.93;2.33;;;;;;;2.37;59.19;98473.34;5087913;28;20086;-67
2022/01/06 03:26:40;;;;;;;5.40;2.78;;;;;;;2.35;59.45;98492.59;5087889;28;20288;-64
2022/01/06 03:29:12;;;;;;;3.65;2.10;;;;;;;2.34;59.27;98476.06;5088001;28;20044;-64
2022/01/06 03:31:44;;;;;;;4.50;2.58;;;;;;;2.38;59.06;98482.03;5087702;28;20086;-66
2022/01/06 03:34:16;;;;;;;4.75;2.28;;;;;;;2.39;59.28;98483.75;5087725;28;20086;-67
2022/01/06 03:36:50;;;;;;;4.07;2.92;;;;;;;2.36;59.59;98504.78;5087993;28;20040;-66
2022/01/06 03:39:22;;;;;;;4.03;2.60;;;;;;;2.32;59.49;98485.72;5087825;28;20040;-66
2022/01/06 03:41:54;;;;;;;5.40;3.08;;;;;;;2.35;59.50;98510.91;5087814;28;20037;-67
2022/01/06 03:44:26;;;;;;;4.78;2.80;;;;;;;2.33;59.54;98502.25;5087470;28;20086;-65
2022/01/06 03:46:58;;;;;;;6.53;3.08;;;;;;;2.38;59.33;98498.56;5087413;28;20040;-64
2022/01/06 03:49:31;;;;;;;5.05;2.65;;;;;;;2.37;59.78;98481.19;5087393;28;20093;-65
2022/01/06 03:52:04;;;;;;;4.28;2.58;;;;;;;2.41;59.49;98484.53;5087354;28;20289;-67
2022/01/06 03:54:37;;;;;;;4.80;2.83;;;;;;;2.38;59.70;98492.50;5087224;28;20059;-66
2022/01/06 03:57:09;;;;;;;4.70;2.40;;;;;;;2.40;59.57;98498.53;5087361;28;20040;-66
2022/01/06 03:59:41;;;;;;;3.88;2.65;;;;;;;2.40;59.69;98514.22;5087422;28;20058;-66
2022/01/06 04:02:13;;;;;;;3.92;2.08;;;;;;;2.41;59.57;98508.94;5087128;28;20094;-66
2022/01/06 04:04:45;;;;;;;5.32;2.53;;;;;;;2.37;59.80;98506.47;5087423;28;20044;-67
2022/01/06 04:07:17;;;;;;;4.13;2.45;;;;;;;2.38;59.79;98519.50;5087111;28;20036;-67
2022/01/06 04:09:46;;;;;;;4.38;2.35;;;;;;;2.40;59.51;98503.75;5087036;28;20045;-66
2022/01/06 04:12:16;;;;;;;6.82;2.55;;;;;;;2.40;59.57;98504.59;5086921;28;20058;-66
2022/01/06 04:14:47;;;;;;;4.53;2.53;;;;;;;1.31;59.76;98383.81;5086926;28;20086;-66
2022/01/06 04:17:16;;;;;;;4.63;2.90;;;;;;;2.40;59.68;98511.59;5087080;28;20044;-64
2022/01/06 04:19:47;;;;;;;4.03;2.58;;;;;;;2.37;59.91;98543.09;5086629;28;20046;-64
2022/01/06 04:22:18;;;;;;;3.17;2.33;;;;;;;2.34;60.02;98532.72;5086936;28;20056;-66
2022/01/06 04:24:48;;;;;;;6.35;2.78;;;;;;;2.36;60.02;98534.38;5086687;28;20036;-65
2022/01/06 04:27:17;;;;;;;5.28;3.08;;;;;;;2.36;60.11;98544.00;5086579;28;20107;-66
2022/01/06 04:29:48;;;;;;;5.80;2.92;;;;;;;2.38;60.01;98544.78;5086643;28;20090;-67
2022/01/06 04:32:18;;;;;;;3.22;2.20;;;;;;;2.11;59.92;98500.41;5086856;28;20056;-67
2022/01/06 04:34:48;;;;;;;9.02;2.70;;;;;;;2.44;59.59;98552.44;5086801;28;20040;-66
2022/01/06 04:37:20;;;;;;;5.07;2.88;;;;;;;2.39;60.14;98549.97;5086781;28;20108;-66
2022/01/06 04:39:49;;;;;;;5.53;2.50;;;;;;;2.38;60.25;98566.56;5086598;28;20049;-66
2022/01/06 04:42:19;;;;;;;7.38;2.70;;;;;;;2.40;60.11;98559.53;5086390;28;20036;-66
2022/01/06 04:44:49;;;;;;;9.05;2.85;;;;;;;2.41;60.43;98582.16;5086568;28;20048;-66
2022/01/06 04:47:19;;;;;;;8.35;3.08;;;;;;;2.43;60.21;98550.72;5086446;28;20040;-66
2022/01/06 04:49:50;;;;;;;7.40;2.58;;;;;;;2.41;60.29;98560.38;5086419;28;20120;-65
2022/01/06 04:52:21;;;;;;;4.07;2.65;;;;;;;2.41;60.46;98550.78;5085131;28;20039;-65
2022/01/06 04:54:50;;;;;;;6.68;3.00;;;;;;;2.40;60.40;98567.38;5086340;28;20048;-66
2022/01/06 04:57:20;;;;;;;3.47;2.15;;;;;;;2.44;60.64;98571.59;5085995;28;20296;-66
2022/01/06 04:59:51;;;;;;;7.05;3.33;;;;;;;2.44;60.45;98575.97;5085343;28;20094;-65
2022/01/06 05:02:21;;;;;;;4.82;3.03;;;;;;;2.46;60.50;98576.75;5085951;28;20036;-65
2022/01/06 05:04:51;;;;;;;3.58;2.75;;;;;;;2.47;60.58;98591.56;5085899;28;20044;-66
2022/01/06 05:07:23;;;;;;;4.45;2.80;;;;;;;2.45;60.78;98568.06;5085806;28;20064;-66
2022/01/06 05:09:52;;;;;;;4.53;2.63;;;;;;;1.40;60.72;98430.50;5086030;28;20044;-65
2022/01/06 05:12:22;;;;;;;3.90;2.35;;;;;;;2.41;60.84;98576.94;5086023;28;20097;-66
2022/01/06 05:14:52;;;;;;;7.28;2.70;;;;;;;2.40;61.12;98580.44;5085682;28;20104;-65
2022/01/06 05:17:22;;;;;;;6.22;3.08;;;;;;;2.39;61.17;98577.88;5085660;28;20082;-65
2022/01/06 05:19:52;;;;;;;3.88;2.45;;;;;;;2.39;61.15;98583.97;5085742;28;20040;-65
2022/01/06 05:22:24;;;;;;;4.45;2.45;;;;;;;2.35;61.59;98577.13;5085913;28;20296;-65
2022/01/06 05:24:54;;;;;;;3.42;2.30;;;;;;;2.35;61.39;98594.59;5085182;28;20045;-65
2022/01/06 05:27:23;;;;;;;3.90;2.80;;;;;;;2.38;61.52;98571.81;5085557;28;20090;-66
2022/01/06 05:29:54;;;;;;;5.03;2.60;;;;;;;2.43;61.27;98584.72;5085546;28;20051;-65
2022/01/06 05:32:24;;;;;;;5.25;2.80;;;;;;;2.41;61.21;98599.59;5085762;28;20141;-65
2022/01/06 05:34:54;;;;;;;3.95;2.60;;;;;;;2.41;61.40;98608.31;5085443;28;20304;-65
2022/01/06 05:37:26;;;;;;;3.42;2.40;;;;;;;2.41;61.61;98597.84;5085421;28;20040;-65
2022/01/06 05:39:54;;;;;;;3.42;2.30;;;;;;;2.41;61.45;98618.78;5085344;28;20044;-66
2022/01/06 05:42:25;;;;;;;3.40;2.63;;;;;;;2.43;61.37;98595.19;5085375;28;20036;-65
2022/01/06 05:44:55;;;;;;;4.57;2.67;;;;;;;2.44;61.34;98597.75;5085346;28;20041;-66
2022/01/06 05:47:25;;;;;;;5.95;2.63;;;;;;;2.44;61.41;98599.50;5085301;28;20196;-66
2022/01/06 05:49:56;;;;;;;5.97;2.83;;;;;;;2.42;61.58;98601.31;5085493;28;20067;-65
2022/01/06 05:52:27;;;;;;;4.93;2.60;;;;;;;2.43;61.35;98606.50;5084964;28;20050;-65
2022/01/06 05:54:56;;;;;;;6.10;3.63;;;;;;;2.40;61.73;98613.59;5085570;28;20041;-65
2022/01/06 05:57:26;;;;;;;4.53;2.75;;;;;;;2.39;61.33;98601.41;5085239;28;20037;-65
2022/01/06 05:59:56;;;;;;;4.05;2.17;;;;;;;2.40;61.64;98603.13;5085132;28;20308;-65
2022/01/06 06:02:27;;;;;;;5.90;3.00;;;;;;;2.32;61.96;98610.38;5085463;28;20205;-66
2022/01/06 06:04:57;;;;;;;5.97;3.08;;;;;;;2.31;62.20;98611.28;5085103;28;20041;-66
2022/01/06 06:07:28;;;;;;;5.97;2.88;;;;;;;2.28;62.17;98611.38;5085280;28;20099;-65
2022/01/06 06:09:57;;;;;;;5.57;3.25;;;;;;;2.28;62.01;98620.09;5085350;28;20048;-65
2022/01/06 06:12:28;;;;;;;4.53;3.28;;;;;;;2.33;61.92;98614.72;5085294;28;20303;-65
2022/01/06 06:14:58;;;;;;;5.63;3.10;;;;;;;2.31;62.13;98640.03;5085111;28;20208;-66
2022/01/06 06:17:28;;;;;;;7.70;3.63;;;;;;;2.30;61.93;98627.88;5085074;28;20060;-66
2022/01/06 06:19:58;;;;;;;4.65;3.15;;;;;;;2.31;62.09;98633.06;5085285;28;20041;-66
2022/01/06 06:22:30;;;;;;;4.90;2.53;;;;;;;2.31;62.02;98633.06;5085337;28;20044;-65
2022/01/06 06:24:59;;;;;;;5.40;2.70;;;;;;;2.31;61.96;98645.28;5085277;28;20296;-66
2022/01/06 06:27:29;;;;;;;6.20;2.55;;;;;;;2.34;61.64;98637.34;5085285;28;20040;-66
2022/01/06 06:29:59;;;;;;;3.75;2.60;;;;;;;2.34;61.62;98635.56;5084946;28;20051;-66
2022/01/06 06:32:33;;;;;;;4.18;2.95;;;;;;;2.37;61.54;98637.22;5085000;28;20040;-66
2022/01/06 06:35:06;;;;;;;3.70;2.55;;;;;;;2.36;61.55;98649.44;5084906;28;20048;-66
2022/01/06 06:37:37;;;;;;;3.42;2.50;;;;;;;2.38;61.47;98652.00;5088784;28;20064;-66
2022/01/06 06:40:07;;;;;;;3.53;2.53;;;;;;;2.37;61.71;98660.75;5088909;28;20041;-66
2022/01/06 06:42:36;;;;;;;6.03;3.08;;;;;;;2.37;61.67;98663.38;5088715;28;20200;-66
2022/01/06 06:45:08;;;;;;;4.43;3.10;;;;;;;2.39;61.53;98662.44;5088909;28;20086;-66
2022/01/06 06:47:36;;;;;;;4.15;2.88;;;;;;;2.35;61.79;98673.03;5088711;28;20090;-66
2022/01/06 06:50:08;;;;;;;5.78;2.85;;;;;;;2.35;61.72;98667.81;5088548;28;20048;-66
2022/01/06 06:52:38;;;;;;;7.10;3.38;;;;;;;2.33;61.92;98683.53;5088246;28;20048;-66
2022/01/06 06:55:08;;;;;;;3.22;2.35;;;;;;;2.33;61.78;98680.06;5088599;28;20048;-66
2022/01/06 06:57:37;;;;;;;4.95;2.90;;;;;;;2.36;61.80;98674.75;5088236;28;20214;-66
2022/01/06 07:00:09;;;;;;;4.18;3.03;;;;;;;2.38;61.88;98686.00;5088576;28;20124;-66
2022/01/06 07:02:38;;;;;;;5.15;3.28;;;;;;;2.38;61.70;98686.00;5088232;28;20128;-66
2022/01/06 07:05:09;;;;;;;4.97;3.13;;;;;;;2.39;61.79;98679.88;5088320;28;20087;-66
2022/01/06 07:07:39;;;;;;;8.25;2.78;;;;;;;2.40;61.81;98702.50;5088482;28;20059;-66
2022/01/06 07:10:09;;;;;;;3.28;2.53;;;;;;;2.40;61.54;98690.28;5088314;28;20067;-66
2022/01/06 07:12:39;;;;;;;7.07;3.38;;;;;;;2.39;61.87;98699.03;5088454;28;20297;-66
2022/01/06 07:15:10;;;;;;;7.20;3.47;;;;;;;2.43;61.35;98705.03;5088151;28;20036;-66
2022/01/06 07:17:39;;;;;;;4.18;2.67;;;;;;;1.89;61.66;98651.84;5088078;28;20047;-66
2022/01/06 07:20:11;;;;;;;5.53;3.30;;;;;;;2.44;61.52;98723.28;5088320;28;20067;-66
2022/01/06 07:22:41;;;;;;;5.70;2.50;;;;;;;2.47;61.40;98728.41;5087915;28;20052;-66
2022/01/06 07:25:10;;;;;;;6.90;3.25;;;;;;;2.49;61.54;98720.50;5088001;28;20315;-66
2022/01/06 07:27:40;;;;;;;8.75;3.38;;;;;;;1.09;61.21;98480.22;5088739;28;20044;-66
2022/01/06 07:30:11;;;;;;;4.72;2.92;;;;;;;2.55;61.16;98738.63;5087847;28;20060;-66
2022/01/06 07:32:45;;;;;;;5.22;2.88;;;;;;;2.56;61.41;98745.56;5087277;28;20048;-66
2022/01/06 07:35:21;;;;;;;5.10;3.75;;;;;;;2.60;61.45;98754.19;5087799;28;20044;-65
2022/01/06 07:37:54;;;;;;;4.65;3.53;;;;;;;2.58;61.49;98762.06;5087935;28;20044;-66
2022/01/06 07:40:27;;;;;;;3.97;2.92;;;;;;;2.60;61.34;98769.88;5087944;28;20045;-66
2022/01/06 07:42:59;;;;;;;6.28;3.17;;;;;;;2.61;61.18;98758.50;5087890;28;20086;-66
2022/01/06 07:45:31;;;;;;;3.95;2.72;;;;;;;2.64;61.35;98761.88;5087627;28;20045;-66
2022/01/06 07:48:14;;;;;;;6.72;3.97;;;;;;;2.64;61.13;98751.41;5087702;28;20082;-66
2022/01/06 07:50:47;;;;;;;5.28;2.97;;;;;;;2.66;61.23;98748.75;5087492;28;20045;-66
2022/01/06 07:53:21;;;;;;;5.07;3.58;;;;;;;2.67;61.28;98756.53;5087250;28;20106;-66
2022/01/06 07:55:53;;;;;;;4.82;2.88;;;;;;;2.78;61.01;98756.19;5087319;28;20041;-66
2022/01/06 07:58:25;;;;;;;6.35;3.00;;;;;;;2.85;60.67;98755.06;5087618;28;20098;-66
2022/01/06 08:01:00;;;;;;;5.13;3.50;;;;;;;2.91;60.63;98761.88;5087430;28;20256;-66
2022/01/06 08:03:33;;;;;;;;;;;;;;;2.99;60.36;98767.69;5087725;28;20322;-66
2022/01/06 08:06:05;;;;;;;4.53;3.00;;;;;;;2.86;59.89;98733.22;5087210;28;20168;-66
2022/01/06 08:08:39;;;;;;;5.75;3.15;;;;;;;3.27;59.57;98765.84;5087242;28;20247;-66
2022/01/06 08:11:12;;;;;;;5.30;3.03;;;;;;;3.38;59.60;98763.69;5087134;28;20094;-66
2022/01/06 08:13:44;;;;;;;3.80;3.00;;;;;;;3.43;59.28;98781.88;5087300;28;20281;-66
2022/01/06 08:16:16;;;;;;;3.70;2.75;;;;;;;3.42;59.14;98760.06;5087041;28;20044;-66
2022/01/06 08:18:48;;;;;;;4.40;2.45;;;;;;;3.53;58.97;98760.53;5086977;28;20044;-66
2022/01/06 08:21:21;;;;;;;3.72;2.80;;;;;;;1.99;58.55;98498.22;5087219;28;20235;-66
2022/01/06 08:23:54;;;;;;;8.07;4.05;;;;;;;3.71;58.47;98768.63;5086909;28;20063;-66
2022/01/06 08:26:26;;;;;;;3.88;2.90;;;;;;;3.86;58.18;98773.31;5087127;28;20044;-66
2022/01/06 08:28:58;;;;;;;4.47;2.42;;;;;;;4.00;57.88;98776.28;5086766;28;20040;-66
2022/01/06 08:31:31;;;;;;;3.83;2.55;;;;;;;4.15;57.40;98770.44;5086976;28;20048;-66
2022/01/06 08:34:03;;;;;;;3.53;2.67;;;;;;;4.34;57.18;98759.25;5086930;28;20056;-66
2022/01/06 08:36:35;;;;;;;4.05;2.65;;;;;;;4.42;56.73;98770.31;5086674;28;20040;-67
2022/01/06 08:39:08;;;;;;;3.90;2.63;;;;;;;4.49;56.40;98780.50;5086651;28;20231;-66
2022/01/06 08:41:41;;;;;;;3.70;2.65;;;;;;;4.57;56.32;98753.09;5086491;28;20102;-67
2022/01/06 08:44:13;;;;;;;4.88;2.53;;;;;;;4.72;56.51;98750.69;5086521;28;20086;-66
2022/01/06 08:46:47;;;;;;;4.28;2.65;;;;;;;4.78;55.74;98771.44;5086367;28;20041;-66
2022/01/06 08:49:19;;;;;;;4.53;3.23;;;;;;;4.87;55.51;98777.25;5086507;28;20044;-67
2022/01/06 08:51:51;;;;;;;3.55;2.20;;;;;;;4.94;55.14;98755.94;5086638;28;20052;-67
2022/01/06 08:54:25;;;;;;;4.80;2.40;;;;;;;5.06;55.46;98755.44;5086095;28;20122;-67
2022/01/06 08:56:57;;;;;;;5.03;2.63;;;;;;;5.10;54.79;98769.28;5086252;28;20036;-67
2022/01/06 08:59:29;;;;;;;9.68;2.88;;;;;;;5.21;54.94;98774.09;5085518;28;20094;-67
2022/01/06 09:02:01;;;;;;;4.47;2.50;;;;;;;5.27;54.48;98758.91;5086097;28;20044;-67
2022/01/06 09:04:33;;;;;;;3.17;1.90;;;;;;;5.36;54.13;98773.44;5086246;28;20049;-66
2022/01/06 09:07:06;;;;;;;3.55;2.22;;;;;;;5.48;54.24;98775.53;5086147;28;20056;-67
2022/01/06 09:09:40;;;;;;;3.72;2.72;;;;;;;5.54;53.78;98790.19;5085894;28;20082;-66
2022/01/06 09:12:17;;;;;;;3.38;2.30;;;;;;;5.59;54.31;98803.97;5086123;28;20110;-66
2022/01/06 09:14:49;;;;;;;3.47;2.30;;;;;;;5.69;54.32;98777.22;5086158;28;20090;-67
2022/01/06 09:17:21;;;;;;;5.40;2.58;;;;;;;5.71;53.89;98769.25;5086136;28;20041;-66
2022/01/06 09:19:53;;;;;;;3.90;2.35;;;;;;;5.82;53.35;98774.03;5085683;28;20040;-66
2022/01/06 09:22:25;;;;;;;6.95;2.97;;;;;;;5.87;53.90;98772.06;5085955;28;20123;-67
2022/01/06 09:24:59;;;;;;;5.60;3.10;;;;;;;5.98;53.55;98767.16;5086041;28;20044;-66
2022/01/06 09:27:32;;;;;;;5.40;2.50;;;;;;;6.05;53.50;98771.22;5085859;28;20150;-67
2022/01/06 09:30:05;;;;;;;4.75;2.47;;;;;;;6.10;53.26;98777.97;5085463;28;20371;-66
2022/01/06 09:32:38;;;;;;;3.50;2.17;;;;;;;6.18;53.00;98782.03;5085663;28;20109;-67
2022/01/06 09:35:10;;;;;;;6.40;3.85;;;;;;;6.28;53.60;98772.78;5085394;28;20040;-67
2022/01/06 09:37:42;;;;;;;3.35;2.45;;;;;;;6.30;52.84;98781.44;5085358;28;20178;-67
2022/01/06 09:40:14;;;;;;;5.43;2.70;;;;;;;6.36;52.99;98775.91;5085407;28;20050;-67
2022/01/06 09:42:44;;;;;;;5.40;2.45;;;;;;;6.21;53.14;98772.19;5085589;28;20032;-67
2022/01/06 09:45:15;;;;;;;5.05;3.55;;;;;;;6.19;53.40;98778.47;5085310;28;20059;-67
2022/01/06 09:47:44;;;;;;;4.00;3.13;;;;;;;6.27;53.20;98778.97;5085484;28;20066;-66
2022/01/06 09:50:14;;;;;;;4.78;2.70;;;;;;;6.34;53.41;98772.47;5085281;28;20335;-67
2022/01/06 09:52:44;;;;;;;3.97;2.65;;;;;;;6.41;53.34;98779.16;5085401;28;20135;-67
2022/01/06 09:55:15;;;;;;;6.55;2.72;;;;;;;6.12;53.38;98742.84;5085302;28;20146;-67
2022/01/06 09:57:55;;;;;;;3.97;2.67;;;;;;;6.37;52.90;98767.94;5085752;28;20028;-67
2022/01/06 10:00:29;;;;;;;5.70;2.67;;;;;;;6.48;53.93;98775.31;5085380;28;20040;-66
2022/01/06 10:03:03;;;;;;;3.78;2.80;;;;;;;6.58;52.64;98787.13;5085450;28;20048;-66
2022/01/06 10:05:41;;;;;;;3.70;2.42;;;;;;;6.65;52.47;98782.41;5085590;28;20041;-67
2022/01/06 10:08:15;;;;;;;4.35;3.08;;;;;;;6.72;53.08;98781.19;5085564;28;20046;-67
2022/01/06 10:10:48;;;;;;;5.32;2.53;;;;;;;6.82;52.29;98792.16;5088277;28;20300;-67
2022/01/06 10:13:21;;;;;;;5.30;3.05;;;;;;;6.94;52.02;98781.88;5089621;28;20071;-66
2022/01/06 10:15:53;;;;;;;6.35;3.08;;;;;;;7.07;51.61;98805.81;5088569;28;20045;-67
2022/01/06 10:18:26;;;;;;;3.30;2.67;;;;;;;7.07;51.70;98777.69;5089360;28;20132;-67
2022/01/06 10:20:58;;;;;;;4.00;2.55;;;;;;;6.87;51.55;98740.09;5089333;28;20037;-67
2022/01/06 10:23:30;;;;;;;3.47;2.42;;;;;;;7.22;51.53;98770.78;5089042;28;20208;-67
2022/01/06 10:26:12;;;;;;;4.53;2.10;;;;;;;5.99;49.56;98590.84;5088855;28;20041;-67
2022/01/06 10:28:44;;;;;;;3.65;2.22;;;;;;;7.30;50.51;98784.44;5089357;28;20041;-66
2022/01/06 10:31:18;;;;;;;4.28;2.50;;;;;;;7.28;50.06;98778.41;5088997;28;20045;-67
2022/01/06 10:33:50;;;;;;;4.32;2.45;;;;;;;7.36;50.18;98780.66;5089111;28;20110;-67
2022/01/06 10:36:28;;;;;;;3.70;2.10;;;;;;;7.50;49.76;98765.00;5089137;28;20045;-67
2022/01/06 10:39:02;;;;;;;3.25;2.22;;;;;;;7.63;50.41;98770.47;5088876;28;20097;-67
2022/01/06 10:41:37;;;;;;;4.82;2.20;;;;;;;7.66;49.50;98754.50;5089118;28;20044;-67
2022/01/06 10:44:12;;;;;;;3.33;2.30;;;;;;;7.63;49.96;98750.22;5088742;28;20040;-67
2022/01/06 10:46:45;;;;;;;;;;;;;;;7.68;48.53;98760.53;5089178;28;20044;-67
2022/01/06 10:49:18;;;;;;;3.92;2.60;;;;;;;7.67;49.96;98753.56;5088908;28;19916;-67
2022/01/06 10:51:52;;;;;;;4.20;2.47;;;;;;;7.66;49.57;98784.34;5088911;28;20288;-67
2022/01/06 10:54:25;;;;;;;3.60;2.40;;;;;;;7.36;49.55;98723.53;5088815;28;20091;-67
2022/01/06 10:57:01;;;;;;;5.70;2.75;;;;;;;7.76;49.55;98773.31;5088653;28;20086;-67
2022/01/06 10:59:35;;;;;;;3.40;2.33;;;;;;;7.54;49.82;98774.44;5088155;28;20086;-67
2022/01/06 11:02:07;;;;;;;3.95;2.08;;;;;;;7.65;50.08;98795.84;5088539;28;20063;-67
2022/01/06 11:04:39;;;;;;;4.05;2.28;;;;;;;7.66;50.09;98779.09;5088449;28;20040;-67
2022/01/06 11:07:12;;;;;;;4.43;2.35;;;;;;;7.67;49.00;98801.03;5088282;28;20101;-66
2022/01/06 11:09:47;;;;;;;3.65;2.00;;;;;;;7.67;49.83;98790.47;5088331;28;20041;-66
2022/01/06 11:12:31;;;;;;;4.18;1.88;;;;;;;7.77;50.45;98804.03;5088048;28;20044;-66
2022/01/06 11:15:05;;;;;;;2.53;1.67;;;;;;;7.83;49.35;98774.69;5088119;28;20040;-67
2022/01/06 11:17:38;;;;;;;2.63;2.00;;;;;;;8.00;49.69;98806.31;5088310;28;20303;-67
2022/01/06 11:20:11;;;;;;;4.72;2.40;;;;;;;7.92;48.96;98797.97;5088029;28;20041;-67
2022/01/06 11:22:51;;;;;;;4.05;2.05;;;;;;;7.93;48.16;98813.72;5087175;28;20045;-67
2022/01/06 11:25:29;;;;;;;3.10;2.00;;;;;;;7.92;47.88;98809.38;5088156;28;20056;-67
2022/01/06 11:28:05;;;;;;;4.10;2.15;;;;;;;7.67;49.31;98807.16;5088265;28;20044;-67
2022/01/06 11:30:43;;;;;;;5.07;2.80;;;;;;;7.44;49.27;98839.13;5088121;28;20350;-67
2022/01/06 11:33:17;;;;;;;3.10;1.80;;;;;;;7.27;50.53;98831.19;5088123;28;20102;-67
2022/01/06 11:35:52;;;;;;;3.28;1.88;;;;;;;7.13;50.82;98831.88;5087697;28;20040;-67
2022/01/06 11:38:26;;;;;;;;;;;;;;;7.12;52.49;98834.59;5088266;28;20177;-68
2022/01/06 11:41:09;;;;;;;3.53;2.40;;;;;;;7.02;51.50;98834.19;5087566;28;20171;-66
2022/01/06 11:43:45;;;;;;;5.60;2.88;;;;;;;6.87;51.37;98846.31;5087192;28;20110;-67
2022/01/06 11:46:17;;;;;;;3.58;2.22;;;;;;;6.72;51.47;98844.38;5088071;28;20091;-67
2022/01/06 11:48:52;;;;;;;3.70;2.40;;;;;;;5.89;51.57;98715.81;5087355;28;20045;-67
2022/01/06 11:51:26;;;;;;;2.85;2.05;;;;;;;6.36;51.53;98896.97;5087738;28;20092;-66
2022/01/06 11:54:11;;;;;;;6.32;2.65;;;;;;;6.25;52.10;98872.91;5087182;28;20162;-68
2022/01/06 11:56:45;;;;;;;3.13;1.95;;;;;;;6.18;52.30;98879.38;5087258;28;20297;-67
2022/01/06 11:59:30;;;;;;;4.47;2.15;;;;;;;6.04;51.78;98885.25;5087221;28;20041;-67
2022/01/06 12:02:02;;;;;;;4.45;3.00;;;;;;;5.95;53.26;98888.28;5087288;28;20040;-67
2022/01/06 12:04:38;;;;;;;5.95;2.75;;;;;;;5.92;53.51;98884.00;5087242;28;20048;-67
2022/01/06 12:07:10;;;;;;;6.32;3.08;;;;;;;5.84;53.91;98885.28;5087207;28;20086;-67
2022/01/06 12:09:43;;;;;;;6.10;3.08;;;;;;;5.67;53.46;98899.13;5086875;28;20093;-66
2022/01/06 12:12:16;;;;;;;4.50;2.70;;;;;;;5.57;54.11;98898.69;5086875;28;20044;-67